Westville, Oklahoma
Current Conditions -  °F | °C
As of 12:35 AM on Saturday 20 Dec 2014 (Local Time) from KSLG Reporting Station
Overcast Overcast  
Wind Chill:   Ceiling: 400
Heat Index:   Visibility: 2mi
Dew Point:   Wind: 0mph
Humidity: 81%   Direction: NA
Pressure: 30.21"   Gusts: NA
Location:  35.99°N, 94.57°W
Report Text: KSLG 200635Z AUTO 00000KT 2SM OVC004 04/01 A3021 RMK AO1
Loading
Personal Weather Stations






























Interactive Weather Map New forecast layout! Learn more

10-Day Weather Forecast

Advertisements
Track Severe Weather on mobile